Addicks, Texas
Current Conditions -  °F | °C
As of 10:49 PM on Thursday 18 Dec 2014 (Local Time) from KSGR Reporting Station
Overcast Overcast  
Wind Chill: 64°   Ceiling: 900
Heat Index: 64°   Visibility: 8mi
Dew Point: 59°   Wind: 10mph
Humidity: 83%   Direction: 70°ENE
Pressure: 30.04"   Gusts: NA
Location:  29.7757°N, 95.6037°W
Report Text: KSGR 190449Z AUTO 07009KT 8SM OVC009 18/15 A3004 RMK AO2 LTG DSNT N AND NW
Loading
Personal Weather Stations






























Interactive Weather Map New forecast layout! Learn more

10-Day Weather Forecast

Advertisements
Track Severe Weather on mobile